sensor_id;sensor_type;location;lat;lon;timestamp;P1;durP1;ratioP1;P2;durP2;ratioP2
78116;SDS011;67887;59.082;37.928;2023-03-01T00:01:35;4.13;;;1.00;;
78116;SDS011;67887;59.082;37.928;2023-03-01T00:04:02;6.45;;;1.10;;
78116;SDS011;67887;59.082;37.928;2023-03-01T00:06:28;3.70;;;1.17;;
78116;SDS011;67887;59.082;37.928;2023-03-01T00:08:55;3.33;;;0.95;;
78116;SDS011;67887;59.082;37.928;2023-03-01T00:11:26;3.88;;;1.08;;
78116;SDS011;67887;59.082;37.928;2023-03-01T00:13:55;4.88;;;1.17;;
78116;SDS011;67887;59.082;37.928;2023-03-01T00:16:24;4.95;;;1.40;;
78116;SDS011;67887;59.082;37.928;2023-03-01T00:18:56;6.95;;;1.10;;
78116;SDS011;67887;59.082;37.928;2023-03-01T00:21:23;4.72;;;0.95;;
78116;SDS011;67887;59.082;37.928;2023-03-01T00:23:50;3.67;;;1.20;;
78116;SDS011;67887;59.082;37.928;2023-03-01T00:26:18;4.88;;;1.00;;
78116;SDS011;67887;59.082;37.928;2023-03-01T00:28:45;2.60;;;0.90;;
78116;SDS011;67887;59.082;37.928;2023-03-01T00:31:13;3.58;;;1.10;;
78116;SDS011;67887;59.082;37.928;2023-03-01T00:33:41;4.80;;;1.13;;
78116;SDS011;67887;59.082;37.928;2023-03-01T00:36:07;4.03;;;1.00;;
78116;SDS011;67887;59.082;37.928;2023-03-01T00:38:34;5.95;;;1.20;;
78116;SDS011;67887;59.082;37.928;2023-03-01T00:41:07;5.32;;;1.30;;
78116;SDS011;67887;59.082;37.928;2023-03-01T00:43:35;9.65;;;1.40;;
78116;SDS011;67887;59.082;37.928;2023-03-01T00:46:04;8.27;;;1.20;;
78116;SDS011;67887;59.082;37.928;2023-03-01T00:48:36;5.50;;;1.42;;
78116;SDS011;67887;59.082;37.928;2023-03-01T00:51:13;6.95;;;1.27;;
78116;SDS011;67887;59.082;37.928;2023-03-01T00:53:41;7.03;;;1.40;;
78116;SDS011;67887;59.082;37.928;2023-03-01T00:56:09;10.07;;;2.15;;
78116;SDS011;67887;59.082;37.928;2023-03-01T00:58:37;7.43;;;1.70;;
78116;SDS011;67887;59.082;37.928;2023-03-01T01:01:17;6.22;;;1.80;;
78116;SDS011;67887;59.082;37.928;2023-03-01T01:06:22;10.30;;;2.08;;
78116;SDS011;67887;59.082;37.928;2023-03-01T01:08:52;11.68;;;2.25;;
78116;SDS011;67887;59.082;37.928;2023-03-01T01:11:20;7.97;;;1.80;;
78116;SDS011;67887;59.082;37.928;2023-03-01T01:13:47;7.38;;;1.73;;
78116;SDS011;67887;59.082;37.928;2023-03-01T01:16:14;10.27;;;2.00;;
78116;SDS011;67887;59.082;37.928;2023-03-01T01:18:41;9.45;;;2.00;;
78116;SDS011;67887;59.082;37.928;2023-03-01T01:21:09;8.30;;;1.88;;
78116;SDS011;67887;59.082;37.928;2023-03-01T01:23:38;14.50;;;2.33;;
78116;SDS011;67887;59.082;37.928;2023-03-01T01:26:06;10.48;;;1.67;;
78116;SDS011;67887;59.082;37.928;2023-03-01T01:28:35;7.65;;;1.80;;
78116;SDS011;67887;59.082;37.928;2023-03-01T01:31:02;9.93;;;1.65;;
78116;SDS011;67887;59.082;37.928;2023-03-01T01:33:28;4.82;;;1.23;;
78116;SDS011;67887;59.082;37.928;2023-03-01T01:35:55;6.75;;;1.52;;
78116;SDS011;67887;59.082;37.928;2023-03-01T01:38:21;6.22;;;1.70;;
78116;SDS011;67887;59.082;37.928;2023-03-01T01:40:48;5.72;;;1.50;;
78116;SDS011;67887;59.082;37.928;2023-03-01T01:45:53;5.82;;;1.40;;
78116;SDS011;67887;59.082;37.928;2023-03-01T01:48:23;6.03;;;1.42;;
78116;SDS011;67887;59.082;37.928;2023-03-01T01:50:57;4.18;;;1.15;;
78116;SDS011;67887;59.082;37.928;2023-03-01T01:53:26;4.50;;;1.10;;
78116;SDS011;67887;59.082;37.928;2023-03-01T01:55:55;5.97;;;1.10;;
78116;SDS011;67887;59.082;37.928;2023-03-01T01:58:25;9.05;;;1.20;;
78116;SDS011;67887;59.082;37.928;2023-03-01T02:00:55;5.38;;;1.45;;
78116;SDS011;67887;59.082;37.928;2023-03-01T02:03:23;9.57;;;1.40;;
78116;SDS011;67887;59.082;37.928;2023-03-01T02:05:57;5.15;;;1.50;;
78116;SDS011;67887;59.082;37.928;2023-03-01T02:08:31;7.00;;;1.42;;
78116;SDS011;67887;59.082;37.928;2023-03-01T02:11:01;4.97;;;1.35;;
78116;SDS011;67887;59.082;37.928;2023-03-01T02:13:30;7.40;;;1.60;;
78116;SDS011;67887;59.082;37.928;2023-03-01T02:15:58;6.57;;;1.60;;
78116;SDS011;67887;59.082;37.928;2023-03-01T02:18:24;6.00;;;1.60;;
78116;SDS011;67887;59.082;37.928;2023-03-01T02:23:36;5.68;;;1.40;;
78116;SDS011;67887;59.082;37.928;2023-03-01T02:26:06;7.30;;;1.50;;
78116;SDS011;67887;59.082;37.928;2023-03-01T02:28:40;8.98;;;2.30;;
78116;SDS011;67887;59.082;37.928;2023-03-01T02:31:09;5.50;;;1.40;;
78116;SDS011;67887;59.082;37.928;2023-03-01T02:33:59;7.78;;;1.55;;
78116;SDS011;67887;59.082;37.928;2023-03-01T02:36:31;5.10;;;1.40;;
78116;SDS011;67887;59.082;37.928;2023-03-01T02:39:03;5.97;;;1.50;;
78116;SDS011;67887;59.082;37.928;2023-03-01T02:41:34;6.05;;;1.60;;
78116;SDS011;67887;59.082;37.928;2023-03-01T02:44:03;8.32;;;1.60;;
78116;SDS011;67887;59.082;37.928;2023-03-01T02:46:29;8.45;;;2.00;;
78116;SDS011;67887;59.082;37.928;2023-03-01T02:48:57;4.47;;;1.60;;
78116;SDS011;67887;59.082;37.928;2023-03-01T02:57:02;5.15;;;1.55;;
78116;SDS011;67887;59.082;37.928;2023-03-01T02:59:32;4.00;;;1.65;;
78116;SDS011;67887;59.082;37.928;2023-03-01T03:04:33;4.97;;;1.40;;
78116;SDS011;67887;59.082;37.928;2023-03-01T03:07:00;5.15;;;1.10;;
78116;SDS011;67887;59.082;37.928;2023-03-01T03:09:27;7.43;;;1.27;;
78116;SDS011;67887;59.082;37.928;2023-03-01T03:11:55;4.68;;;1.20;;
78116;SDS011;67887;59.082;37.928;2023-03-01T03:14:22;4.28;;;1.30;;
78116;SDS011;67887;59.082;37.928;2023-03-01T03:16:49;4.72;;;1.30;;
78116;SDS011;67887;59.082;37.928;2023-03-01T03:19:17;4.20;;;1.20;;
78116;SDS011;67887;59.082;37.928;2023-03-01T03:21:44;3.90;;;1.00;;
78116;SDS011;67887;59.082;37.928;2023-03-01T03:24:11;3.67;;;1.15;;
78116;SDS011;67887;59.082;37.928;2023-03-01T03:26:37;4.13;;;1.10;;
78116;SDS011;67887;59.082;37.928;2023-03-01T03:29:03;4.25;;;1.20;;
78116;SDS011;67887;59.082;37.928;2023-03-01T03:31:30;4.00;;;1.13;;
78116;SDS011;67887;59.082;37.928;2023-03-01T03:33:56;6.57;;;1.13;;
78116;SDS011;67887;59.082;37.928;2023-03-01T03:36:24;5.32;;;1.50;;
78116;SDS011;67887;59.082;37.928;2023-03-01T03:38:51;6.70;;;1.45;;
78116;SDS011;67887;59.082;37.928;2023-03-01T03:41:17;6.53;;;1.30;;
78116;SDS011;67887;59.082;37.928;2023-03-01T03:43:43;4.72;;;1.17;;
78116;SDS011;67887;59.082;37.928;2023-03-01T03:46:10;5.15;;;1.27;;
78116;SDS011;67887;59.082;37.928;2023-03-01T03:48:42;4.75;;;1.15;;
78116;SDS011;67887;59.082;37.928;2023-03-01T03:51:10;5.15;;;1.40;;
78116;SDS011;67887;59.082;37.928;2023-03-01T03:53:38;4.35;;;1.17;;
78116;SDS011;67887;59.082;37.928;2023-03-01T03:56:05;4.13;;;0.95;;
78116;SDS011;67887;59.082;37.928;2023-03-01T03:58:32;3.80;;;1.00;;
78116;SDS011;67887;59.082;37.928;2023-03-01T04:00:58;2.88;;;0.90;;
78116;SDS011;67887;59.082;37.928;2023-03-01T04:03:26;4.88;;;0.90;;
78116;SDS011;67887;59.082;37.928;2023-03-01T04:05:54;3.65;;;0.88;;
78116;SDS011;67887;59.082;37.928;2023-03-01T04:08:22;5.38;;;1.00;;
78116;SDS011;67887;59.082;37.928;2023-03-01T04:10:50;2.88;;;0.90;;
78116;SDS011;67887;59.082;37.928;2023-03-01T04:13:21;3.00;;;0.95;;
78116;SDS011;67887;59.082;37.928;2023-03-01T04:15:51;3.05;;;0.90;;
78116;SDS011;67887;59.082;37.928;2023-03-01T04:18:22;3.88;;;0.80;;
78116;SDS011;67887;59.082;37.928;2023-03-01T04:20:50;4.22;;;1.10;;
78116;SDS011;67887;59.082;37.928;2023-03-01T04:23:21;3.83;;;1.00;;
78116;SDS011;67887;59.082;37.928;2023-03-01T04:25:54;2.75;;;0.88;;
78116;SDS011;67887;59.082;37.928;2023-03-01T04:28:33;2.63;;;0.85;;
78116;SDS011;67887;59.082;37.928;2023-03-01T04:31:05;3.05;;;0.88;;
78116;SDS011;67887;59.082;37.928;2023-03-01T04:33:46;4.50;;;1.20;;
78116;SDS011;67887;59.082;37.928;2023-03-01T04:36:17;3.70;;;0.93;;
78116;SDS011;67887;59.082;37.928;2023-03-01T04:38:44;4.53;;;1.00;;
78116;SDS011;67887;59.082;37.928;2023-03-01T04:41:14;3.47;;;0.98;;
78116;SDS011;67887;59.082;37.928;2023-03-01T04:43:42;3.90;;;1.10;;
78116;SDS011;67887;59.082;37.928;2023-03-01T04:46:09;4.13;;;1.10;;
78116;SDS011;67887;59.082;37.928;2023-03-01T04:48:38;6.05;;;1.30;;
78116;SDS011;67887;59.082;37.928;2023-03-01T04:51:05;3.47;;;1.02;;
78116;SDS011;67887;59.082;37.928;2023-03-01T04:53:33;4.47;;;1.45;;
78116;SDS011;67887;59.082;37.928;2023-03-01T04:56:01;6.95;;;1.50;;
78116;SDS011;67887;59.082;37.928;2023-03-01T04:58:28;8.13;;;1.50;;
78116;SDS011;67887;59.082;37.928;2023-03-01T05:00:54;5.50;;;1.45;;
78116;SDS011;67887;59.082;37.928;2023-03-01T05:03:20;5.93;;;1.48;;
78116;SDS011;67887;59.082;37.928;2023-03-01T05:05:48;5.50;;;1.40;;
78116;SDS011;67887;59.082;37.928;2023-03-01T05:08:16;7.22;;;1.38;;
78116;SDS011;67887;59.082;37.928;2023-03-01T05:10:50;6.43;;;1.67;;
78116;SDS011;67887;59.082;37.928;2023-03-01T05:13:18;9.48;;;1.63;;
78116;SDS011;67887;59.082;37.928;2023-03-01T05:15:49;8.57;;;1.58;;
78116;SDS011;67887;59.082;37.928;2023-03-01T05:18:20;8.13;;;1.90;;
78116;SDS011;67887;59.082;37.928;2023-03-01T05:20:47;7.40;;;1.58;;
78116;SDS011;67887;59.082;37.928;2023-03-01T05:23:13;6.65;;;1.60;;
78116;SDS011;67887;59.082;37.928;2023-03-01T05:25:39;7.90;;;1.90;;
78116;SDS011;67887;59.082;37.928;2023-03-01T05:28:06;4.95;;;1.60;;
78116;SDS011;67887;59.082;37.928;2023-03-01T05:30:36;5.75;;;1.40;;
78116;SDS011;67887;59.082;37.928;2023-03-01T05:33:04;4.95;;;1.25;;
78116;SDS011;67887;59.082;37.928;2023-03-01T05:35:32;6.00;;;1.30;;
78116;SDS011;67887;59.082;37.928;2023-03-01T05:37:58;4.45;;;1.17;;
78116;SDS011;67887;59.082;37.928;2023-03-01T05:40:24;4.97;;;1.23;;
78116;SDS011;67887;59.082;37.928;2023-03-01T05:42:55;5.10;;;1.58;;
78116;SDS011;67887;59.082;37.928;2023-03-01T05:45:22;3.67;;;1.10;;
78116;SDS011;67887;59.082;37.928;2023-03-01T05:47:50;5.63;;;1.13;;
78116;SDS011;67887;59.082;37.928;2023-03-01T05:52:58;3.95;;;1.40;;
78116;SDS011;67887;59.082;37.928;2023-03-01T05:55:24;4.43;;;1.35;;
78116;SDS011;67887;59.082;37.928;2023-03-01T05:57:50;3.60;;;0.90;;
78116;SDS011;67887;59.082;37.928;2023-03-01T06:00:17;3.53;;;1.10;;
78116;SDS011;67887;59.082;37.928;2023-03-01T06:02:45;4.10;;;1.20;;
78116;SDS011;67887;59.082;37.928;2023-03-01T06:05:12;4.68;;;1.23;;
78116;SDS011;67887;59.082;37.928;2023-03-01T06:07:39;5.45;;;1.13;;
78116;SDS011;67887;59.082;37.928;2023-03-01T06:10:06;4.78;;;1.30;;
78116;SDS011;67887;59.082;37.928;2023-03-01T06:12:33;5.63;;;1.35;;
78116;SDS011;67887;59.082;37.928;2023-03-01T06:15:01;5.20;;;1.20;;
78116;SDS011;67887;59.082;37.928;2023-03-01T06:17:30;6.80;;;1.50;;
78116;SDS011;67887;59.082;37.928;2023-03-01T06:19:57;4.65;;;1.40;;
78116;SDS011;67887;59.082;37.928;2023-03-01T06:22:23;8.48;;;1.65;;
78116;SDS011;67887;59.082;37.928;2023-03-01T06:24:50;4.90;;;1.50;;
78116;SDS011;67887;59.082;37.928;2023-03-01T06:27:16;5.10;;;1.33;;
78116;SDS011;67887;59.082;37.928;2023-03-01T06:29:42;8.25;;;1.70;;
78116;SDS011;67887;59.082;37.928;2023-03-01T06:32:08;6.75;;;1.70;;
78116;SDS011;67887;59.082;37.928;2023-03-01T06:34:34;8.07;;;1.73;;
78116;SDS011;67887;59.082;37.928;2023-03-01T06:37:00;5.25;;;1.70;;
78116;SDS011;67887;59.082;37.928;2023-03-01T06:39:31;4.53;;;1.65;;
78116;SDS011;67887;59.082;37.928;2023-03-01T06:41:57;8.80;;;1.70;;
78116;SDS011;67887;59.082;37.928;2023-03-01T06:44:23;5.50;;;1.55;;
78116;SDS011;67887;59.082;37.928;2023-03-01T06:46:49;8.48;;;2.20;;
78116;SDS011;67887;59.082;37.928;2023-03-01T06:49:15;6.15;;;1.80;;
78116;SDS011;67887;59.082;37.928;2023-03-01T06:51:43;9.45;;;2.30;;
78116;SDS011;67887;59.082;37.928;2023-03-01T06:54:10;10.95;;;2.05;;
78116;SDS011;67887;59.082;37.928;2023-03-01T06:56:36;10.68;;;2.03;;
78116;SDS011;67887;59.082;37.928;2023-03-01T06:59:02;5.80;;;1.90;;
78116;SDS011;67887;59.082;37.928;2023-03-01T07:01:29;9.50;;;1.80;;
78116;SDS011;67887;59.082;37.928;2023-03-01T07:03:55;10.73;;;2.13;;
78116;SDS011;67887;59.082;37.928;2023-03-01T07:06:21;7.45;;;2.00;;
78116;SDS011;67887;59.082;37.928;2023-03-01T07:08:48;7.00;;;2.13;;
78116;SDS011;67887;59.082;37.928;2023-03-01T07:11:15;10.15;;;2.45;;
78116;SDS011;67887;59.082;37.928;2023-03-01T07:13:41;8.32;;;2.20;;
78116;SDS011;67887;59.082;37.928;2023-03-01T07:16:08;7.75;;;2.13;;
78116;SDS011;67887;59.082;37.928;2023-03-01T07:18:34;11.23;;;2.30;;
78116;SDS011;67887;59.082;37.928;2023-03-01T07:21:04;6.60;;;1.85;;
78116;SDS011;67887;59.082;37.928;2023-03-01T07:23:33;9.25;;;2.10;;
78116;SDS011;67887;59.082;37.928;2023-03-01T07:26:00;6.07;;;2.22;;
78116;SDS011;67887;59.082;37.928;2023-03-01T07:28:26;9.85;;;2.25;;
78116;SDS011;67887;59.082;37.928;2023-03-01T07:30:53;8.15;;;2.00;;
78116;SDS011;67887;59.082;37.928;2023-03-01T07:33:19;7.72;;;2.17;;
78116;SDS011;67887;59.082;37.928;2023-03-01T07:35:45;10.55;;;2.30;;
78116;SDS011;67887;59.082;37.928;2023-03-01T07:38:11;5.97;;;2.30;;
78116;SDS011;67887;59.082;37.928;2023-03-01T07:40:37;6.63;;;2.08;;
78116;SDS011;67887;59.082;37.928;2023-03-01T07:43:03;7.35;;;2.05;;
78116;SDS011;67887;59.082;37.928;2023-03-01T07:45:29;9.02;;;2.00;;
78116;SDS011;67887;59.082;37.928;2023-03-01T07:47:55;7.78;;;1.83;;
78116;SDS011;67887;59.082;37.928;2023-03-01T07:50:21;11.32;;;2.00;;
78116;SDS011;67887;59.082;37.928;2023-03-01T07:52:48;8.70;;;1.80;;
78116;SDS011;67887;59.082;37.928;2023-03-01T07:55:15;7.68;;;1.90;;
78116;SDS011;67887;59.082;37.928;2023-03-01T07:57:42;9.52;;;1.70;;
78116;SDS011;67887;59.082;37.928;2023-03-01T08:00:10;5.97;;;1.50;;
78116;SDS011;67887;59.082;37.928;2023-03-01T08:02:39;5.18;;;1.48;;
78116;SDS011;67887;59.082;37.928;2023-03-01T08:05:07;5.80;;;1.80;;
78116;SDS011;67887;59.082;37.928;2023-03-01T08:07:35;5.65;;;1.55;;
78116;SDS011;67887;59.082;37.928;2023-03-01T08:10:01;5.05;;;1.60;;
78116;SDS011;67887;59.082;37.928;2023-03-01T08:12:27;5.63;;;1.77;;
78116;SDS011;67887;59.082;37.928;2023-03-01T08:14:53;5.70;;;1.75;;
78116;SDS011;67887;59.082;37.928;2023-03-01T08:17:21;6.55;;;1.60;;
78116;SDS011;67887;59.082;37.928;2023-03-01T08:19:47;6.90;;;1.48;;
78116;SDS011;67887;59.082;37.928;2023-03-01T08:22:13;5.63;;;1.73;;
78116;SDS011;67887;59.082;37.928;2023-03-01T08:24:39;6.50;;;1.80;;
78116;SDS011;67887;59.082;37.928;2023-03-01T08:27:05;4.28;;;1.52;;
78116;SDS011;67887;59.082;37.928;2023-03-01T08:29:31;3.70;;;1.30;;
78116;SDS011;67887;59.082;37.928;2023-03-01T08:31:58;5.25;;;1.45;;
78116;SDS011;67887;59.082;37.928;2023-03-01T08:34:25;5.53;;;1.63;;
78116;SDS011;67887;59.082;37.928;2023-03-01T08:36:51;3.78;;;1.30;;
78116;SDS011;67887;59.082;37.928;2023-03-01T08:39:19;5.28;;;1.35;;
78116;SDS011;67887;59.082;37.928;2023-03-01T08:41:46;4.65;;;1.30;;
78116;SDS011;67887;59.082;37.928;2023-03-01T08:44:13;3.60;;;1.13;;
78116;SDS011;67887;59.082;37.928;2023-03-01T08:46:42;4.18;;;1.13;;
78116;SDS011;67887;59.082;37.928;2023-03-01T08:49:12;3.25;;;1.10;;
78116;SDS011;67887;59.082;37.928;2023-03-01T08:51:40;4.38;;;1.20;;
78116;SDS011;67887;59.082;37.928;2023-03-01T08:54:09;4.28;;;1.20;;
78116;SDS011;67887;59.082;37.928;2023-03-01T08:56:37;3.13;;;0.93;;
78116;SDS011;67887;59.082;37.928;2023-03-01T08:59:03;3.80;;;1.00;;
78116;SDS011;67887;59.082;37.928;2023-03-01T09:01:29;3.13;;;0.98;;
78116;SDS011;67887;59.082;37.928;2023-03-01T09:03:55;2.80;;;0.90;;
78116;SDS011;67887;59.082;37.928;2023-03-01T09:06:22;4.45;;;0.98;;
78116;SDS011;67887;59.082;37.928;2023-03-01T09:08:49;3.67;;;1.00;;
78116;SDS011;67887;59.082;37.928;2023-03-01T09:11:17;4.18;;;1.15;;
78116;SDS011;67887;59.082;37.928;2023-03-01T09:13:45;4.07;;;1.20;;
78116;SDS011;67887;59.082;37.928;2023-03-01T09:16:13;4.00;;;1.10;;
78116;SDS011;67887;59.082;37.928;2023-03-01T09:18:42;4.05;;;1.10;;
78116;SDS011;67887;59.082;37.928;2023-03-01T09:21:12;2.83;;;0.93;;
78116;SDS011;67887;59.082;37.928;2023-03-01T09:23:43;4.05;;;1.00;;
78116;SDS011;67887;59.082;37.928;2023-03-01T09:26:11;3.10;;;0.98;;
78116;SDS011;67887;59.082;37.928;2023-03-01T09:28:44;4.05;;;1.08;;
78116;SDS011;67887;59.082;37.928;2023-03-01T09:31:11;4.35;;;1.20;;
78116;SDS011;67887;59.082;37.928;2023-03-01T09:33:40;3.63;;;1.20;;
78116;SDS011;67887;59.082;37.928;2023-03-01T09:36:08;3.72;;;1.10;;
78116;SDS011;67887;59.082;37.928;2023-03-01T09:38:37;3.80;;;1.20;;
78116;SDS011;67887;59.082;37.928;2023-03-01T09:41:08;2.97;;;1.02;;
78116;SDS011;67887;59.082;37.928;2023-03-01T09:46:23;3.88;;;1.20;;
78116;SDS011;67887;59.082;37.928;2023-03-01T09:49:04;3.58;;;1.10;;
78116;SDS011;67887;59.082;37.928;2023-03-01T09:51:36;2.65;;;0.90;;
78116;SDS011;67887;59.082;37.928;2023-03-01T09:54:02;3.67;;;1.10;;
78116;SDS011;67887;59.082;37.928;2023-03-01T09:56:32;3.92;;;0.90;;
78116;SDS011;67887;59.082;37.928;2023-03-01T10:07:48;3.13;;;1.10;;
78116;SDS011;67887;59.082;37.928;2023-03-01T10:10:23;3.78;;;1.02;;
78116;SDS011;67887;59.082;37.928;2023-03-01T10:12:59;4.75;;;1.20;;
78116;SDS011;67887;59.082;37.928;2023-03-01T10:15:36;3.42;;;1.00;;
78116;SDS011;67887;59.082;37.928;2023-03-01T10:18:12;2.85;;;0.90;;
78116;SDS011;67887;59.082;37.928;2023-03-01T10:20:50;4.45;;;1.00;;
78116;SDS011;67887;59.082;37.928;2023-03-01T10:23:20;2.80;;;1.00;;
78116;SDS011;67887;59.082;37.928;2023-03-01T10:31:04;2.80;;;0.82;;
78116;SDS011;67887;59.082;37.928;2023-03-01T10:33:37;3.72;;;0.95;;
78116;SDS011;67887;59.082;37.928;2023-03-01T10:36:34;2.75;;;0.82;;
78116;SDS011;67887;59.082;37.928;2023-03-01T10:39:03;3.70;;;1.20;;
78116;SDS011;67887;59.082;37.928;2023-03-01T10:41:44;4.00;;;1.00;;
78116;SDS011;67887;59.082;37.928;2023-03-01T10:47:11;2.92;;;1.02;;
78116;SDS011;67887;59.082;37.928;2023-03-01T10:49:53;3.42;;;1.10;;
78116;SDS011;67887;59.082;37.928;2023-03-01T10:52:32;3.40;;;0.90;;
78116;SDS011;67887;59.082;37.928;2023-03-01T10:55:04;4.85;;;1.00;;
78116;SDS011;67887;59.082;37.928;2023-03-01T10:57:49;3.28;;;0.93;;
78116;SDS011;67887;59.082;37.928;2023-03-01T11:00:20;2.72;;;0.90;;
78116;SDS011;67887;59.082;37.928;2023-03-01T11:05:24;4.85;;;1.38;;
78116;SDS011;67887;59.082;37.928;2023-03-01T11:07:52;3.83;;;1.10;;
78116;SDS011;67887;59.082;37.928;2023-03-01T11:10:23;4.00;;;1.10;;
78116;SDS011;67887;59.082;37.928;2023-03-01T11:13:18;3.30;;;1.05;;
78116;SDS011;67887;59.082;37.928;2023-03-01T11:18:33;2.97;;;1.02;;
78116;SDS011;67887;59.082;37.928;2023-03-01T11:20:59;3.30;;;0.80;;
78116;SDS011;67887;59.082;37.928;2023-03-01T11:23:28;2.70;;;0.90;;
78116;SDS011;67887;59.082;37.928;2023-03-01T11:25:57;4.38;;;0.90;;
78116;SDS011;67887;59.082;37.928;2023-03-01T11:28:28;4.25;;;0.95;;
78116;SDS011;67887;59.082;37.928;2023-03-01T11:30:57;3.30;;;0.90;;
78116;SDS011;67887;59.082;37.928;2023-03-01T11:33:35;3.33;;;0.90;;
78116;SDS011;67887;59.082;37.928;2023-03-01T11:36:05;3.05;;;0.88;;
78116;SDS011;67887;59.082;37.928;2023-03-01T11:38:38;3.10;;;0.93;;
78116;SDS011;67887;59.082;37.928;2023-03-01T11:41:06;3.92;;;1.10;;
78116;SDS011;67887;59.082;37.928;2023-03-01T11:46:29;2.80;;;1.10;;
78116;SDS011;67887;59.082;37.928;2023-03-01T11:57:07;3.38;;;1.00;;
78116;SDS011;67887;59.082;37.928;2023-03-01T12:19:33;3.35;;;0.85;;
78116;SDS011;67887;59.082;37.928;2023-03-01T12:22:29;3.00;;;1.00;;
78116;SDS011;67887;59.082;37.928;2023-03-01T12:30:37;2.90;;;0.90;;
78116;SDS011;67887;59.082;37.928;2023-03-01T12:38:56;3.42;;;0.90;;
78116;SDS011;67887;59.082;37.928;2023-03-01T12:41:35;2.78;;;0.80;;
78116;SDS011;67887;59.082;37.928;2023-03-01T12:44:21;3.40;;;1.00;;
78116;SDS011;67887;59.082;37.928;2023-03-01T12:49:57;3.15;;;0.90;;
78116;SDS011;67887;59.082;37.928;2023-03-01T12:52:33;3.30;;;0.80;;
78116;SDS011;67887;59.082;37.928;2023-03-01T12:55:06;2.50;;;0.75;;
78116;SDS011;67887;59.082;37.928;2023-03-01T12:57:46;3.15;;;0.93;;
78116;SDS011;67887;59.082;37.928;2023-03-01T13:06:00;4.80;;;0.90;;
78116;SDS011;67887;59.082;37.928;2023-03-01T13:11:20;2.90;;;0.90;;
78116;SDS011;67887;59.082;37.928;2023-03-01T13:13:48;3.53;;;0.90;;
78116;SDS011;67887;59.082;37.928;2023-03-01T13:16:22;3.42;;;0.90;;
78116;SDS011;67887;59.082;37.928;2023-03-01T13:19:06;3.20;;;1.00;;
78116;SDS011;67887;59.082;37.928;2023-03-01T13:21:42;3.03;;;0.80;;
78116;SDS011;67887;59.082;37.928;2023-03-01T13:32:39;3.03;;;1.15;;
78116;SDS011;67887;59.082;37.928;2023-03-01T13:37:42;2.47;;;0.80;;
78116;SDS011;67887;59.082;37.928;2023-03-01T13:42:45;3.67;;;1.00;;
78116;SDS011;67887;59.082;37.928;2023-03-01T13:45:14;4.32;;;1.00;;
78116;SDS011;67887;59.082;37.928;2023-03-01T13:50:50;3.20;;;1.02;;
78116;SDS011;67887;59.082;37.928;2023-03-01T13:53:22;3.20;;;0.82;;
78116;SDS011;67887;59.082;37.928;2023-03-01T13:59:01;3.90;;;1.17;;
78116;SDS011;67887;59.082;37.928;2023-03-01T14:01:32;3.17;;;0.93;;
78116;SDS011;67887;59.082;37.928;2023-03-01T14:04:00;3.20;;;1.00;;
78116;SDS011;67887;59.082;37.928;2023-03-01T14:06:29;3.17;;;0.90;;
78116;SDS011;67887;59.082;37.928;2023-03-01T14:19:32;3.08;;;1.02;;
78116;SDS011;67887;59.082;37.928;2023-03-01T14:24:51;4.32;;;1.02;;
78116;SDS011;67887;59.082;37.928;2023-03-01T14:27:30;3.80;;;1.02;;
78116;SDS011;67887;59.082;37.928;2023-03-01T14:30:03;3.55;;;1.02;;
78116;SDS011;67887;59.082;37.928;2023-03-01T14:32:38;2.60;;;0.90;;
78116;SDS011;67887;59.082;37.928;2023-03-01T14:35:38;4.80;;;0.90;;
78116;SDS011;67887;59.082;37.928;2023-03-01T14:38:03;3.83;;;1.02;;
78116;SDS011;67887;59.082;37.928;2023-03-01T14:40:30;4.22;;;0.90;;
78116;SDS011;67887;59.082;37.928;2023-03-01T14:43:00;3.30;;;1.00;;
78116;SDS011;67887;59.082;37.928;2023-03-01T14:45:35;4.38;;;1.00;;
78116;SDS011;67887;59.082;37.928;2023-03-01T14:48:02;3.80;;;1.02;;
78116;SDS011;67887;59.082;37.928;2023-03-01T14:52:58;5.15;;;1.00;;
78116;SDS011;67887;59.082;37.928;2023-03-01T14:55:28;3.55;;;1.10;;
78116;SDS011;67887;59.082;37.928;2023-03-01T14:57:57;3.72;;;1.00;;
78116;SDS011;67887;59.082;37.928;2023-03-01T15:00:26;3.10;;;1.00;;
78116;SDS011;67887;59.082;37.928;2023-03-01T15:02:54;3.25;;;1.00;;
78116;SDS011;67887;59.082;37.928;2023-03-01T15:07:55;3.30;;;0.95;;
78116;SDS011;67887;59.082;37.928;2023-03-01T15:10:26;3.33;;;0.90;;
78116;SDS011;67887;59.082;37.928;2023-03-01T15:12:54;4.18;;;1.08;;
78116;SDS011;67887;59.082;37.928;2023-03-01T15:17:51;2.78;;;0.80;;
78116;SDS011;67887;59.082;37.928;2023-03-01T15:20:22;3.60;;;1.00;;
78116;SDS011;67887;59.082;37.928;2023-03-01T15:22:55;3.03;;;0.90;;
78116;SDS011;67887;59.082;37.928;2023-03-01T15:25:24;3.00;;;0.80;;
78116;SDS011;67887;59.082;37.928;2023-03-01T15:27:53;4.45;;;0.90;;
78116;SDS011;67887;59.082;37.928;2023-03-01T16:03:02;3.58;;;0.80;;
78116;SDS011;67887;59.082;37.928;2023-03-01T16:05:30;2.60;;;0.70;;
78116;SDS011;67887;59.082;37.928;2023-03-01T16:07:58;3.08;;;0.80;;
78116;SDS011;67887;59.082;37.928;2023-03-01T16:10:30;4.00;;;0.80;;
78116;SDS011;67887;59.082;37.928;2023-03-01T16:13:00;2.28;;;0.70;;
78116;SDS011;67887;59.082;37.928;2023-03-01T16:15:29;2.90;;;0.90;;
78116;SDS011;67887;59.082;37.928;2023-03-01T16:18:03;2.85;;;0.77;;
78116;SDS011;67887;59.082;37.928;2023-03-01T16:20:44;3.75;;;0.90;;
78116;SDS011;67887;59.082;37.928;2023-03-01T16:23:20;2.40;;;0.70;;
78116;SDS011;67887;59.082;37.928;2023-03-01T16:25:52;3.22;;;0.93;;
78116;SDS011;67887;59.082;37.928;2023-03-01T16:28:21;2.47;;;0.90;;
78116;SDS011;67887;59.082;37.928;2023-03-01T16:30:50;3.00;;;1.15;;
78116;SDS011;67887;59.082;37.928;2023-03-01T16:33:22;3.38;;;0.90;;
78116;SDS011;67887;59.082;37.928;2023-03-01T16:35:52;3.95;;;0.90;;
78116;SDS011;67887;59.082;37.928;2023-03-01T16:38:21;3.08;;;0.90;;
78116;SDS011;67887;59.082;37.928;2023-03-01T16:40:49;2.67;;;0.88;;
78116;SDS011;67887;59.082;37.928;2023-03-01T16:43:19;3.83;;;1.17;;
78116;SDS011;67887;59.082;37.928;2023-03-01T16:45:46;4.10;;;1.30;;
78116;SDS011;67887;59.082;37.928;2023-03-01T16:48:20;5.20;;;1.05;;
78116;SDS011;67887;59.082;37.928;2023-03-01T16:51:00;3.75;;;1.13;;
78116;SDS011;67887;59.082;37.928;2023-03-01T16:53:28;4.50;;;1.30;;
78116;SDS011;67887;59.082;37.928;2023-03-01T16:56:05;4.00;;;1.20;;
78116;SDS011;67887;59.082;37.928;2023-03-01T16:58:36;3.90;;;1.30;;
78116;SDS011;67887;59.082;37.928;2023-03-01T17:01:17;3.35;;;1.08;;
78116;SDS011;67887;59.082;37.928;2023-03-01T17:03:50;5.32;;;1.20;;
78116;SDS011;67887;59.082;37.928;2023-03-01T17:06:20;4.68;;;1.40;;
78116;SDS011;67887;59.082;37.928;2023-03-01T17:08:51;5.43;;;1.40;;
78116;SDS011;67887;59.082;37.928;2023-03-01T17:11:21;4.25;;;1.38;;
78116;SDS011;67887;59.082;37.928;2023-03-01T17:13:53;4.15;;;1.38;;
78116;SDS011;67887;59.082;37.928;2023-03-01T17:16:22;4.70;;;1.40;;
78116;SDS011;67887;59.082;37.928;2023-03-01T17:18:54;3.83;;;1.30;;
78116;SDS011;67887;59.082;37.928;2023-03-01T17:21:24;4.30;;;1.30;;
78116;SDS011;67887;59.082;37.928;2023-03-01T17:23:59;5.00;;;1.40;;
78116;SDS011;67887;59.082;37.928;2023-03-01T17:26:30;4.03;;;1.17;;
78116;SDS011;67887;59.082;37.928;2023-03-01T17:29:01;4.65;;;1.42;;
78116;SDS011;67887;59.082;37.928;2023-03-01T17:31:32;5.25;;;1.40;;
78116;SDS011;67887;59.082;37.928;2023-03-01T17:34:06;5.85;;;1.65;;
78116;SDS011;67887;59.082;37.928;2023-03-01T17:36:38;5.07;;;1.60;;
78116;SDS011;67887;59.082;37.928;2023-03-01T17:39:10;4.25;;;1.48;;